createdAt,value
2022-09-23T00:00:15.268Z,78.17
2022-09-23T00:02:55.444Z,78.15
2022-09-23T00:05:42.237Z,77.76
2022-09-23T00:08:22.352Z,77.32
2022-09-23T00:11:14.204Z,78.09
2022-09-23T00:14:03.198Z,77.92
2022-09-23T00:16:50.322Z,77.19
2022-09-23T00:19:37.184Z,76.54
2022-09-23T00:22:17.567Z,75.47
2022-09-23T00:25:04.285Z,75.15
2022-09-23T00:27:58.173Z,75.00
2022-09-23T00:30:48.337Z,75.31
2022-09-23T00:33:29.901Z,75.25
2022-09-23T00:36:18.188Z,76.03
2022-09-23T00:39:05.273Z,76.83
2022-09-23T00:41:45.613Z,77.37
2022-09-23T00:44:55.211Z,77.15
2022-09-23T00:47:50.164Z,76.56
2022-09-23T00:50:37.208Z,76.92
2022-09-23T00:53:22.627Z,77.38
2022-09-23T00:56:17.183Z,77.86
2022-09-23T00:59:11.149Z,76.74
2022-09-23T01:02:01.232Z,76.90
2022-09-23T01:04:42.265Z,76.78
2022-09-23T01:07:29.200Z,76.11
2022-09-23T01:10:16.166Z,75.30
2022-09-23T01:13:09.306Z,75.55
2022-09-23T01:15:56.157Z,75.23
2022-09-23T01:19:17.129Z,75.09
2022-09-23T01:22:27.138Z,73.86
2022-09-23T01:25:51.153Z,73.66
2022-09-23T01:28:38.236Z,73.75
2022-09-23T01:31:45.150Z,74.11
2022-09-23T01:34:36.717Z,73.41
2022-09-23T01:37:37.085Z,73.45
2022-09-23T01:40:49.174Z,72.58
2022-09-23T01:43:47.948Z,71.89
2022-09-23T01:46:44.090Z,71.17
2022-09-23T01:49:43.161Z,71.33
2022-09-23T01:53:03.084Z,71.87
2022-09-23T01:55:50.117Z,72.13
2022-09-23T01:58:44.106Z,73.00
2022-09-23T02:01:35.246Z,72.36
2022-09-23T02:04:45.105Z,72.18
2022-09-23T02:08:12.113Z,72.45
2022-09-23T02:11:16.044Z,72.70
2022-09-23T02:14:22.124Z,72.58
2022-09-23T02:17:08.544Z,73.20
2022-09-23T02:20:04.069Z,73.25
2022-09-23T02:28:35.087Z,75.25
2022-09-23T02:31:37.084Z,75.31
2022-09-23T02:34:23.252Z,75.23
2022-09-23T02:37:13.067Z,76.43
2022-09-23T02:40:04.254Z,76.29
2022-09-23T02:43:24.065Z,76.01
2022-09-23T02:46:04.158Z,76.13
2022-09-23T02:49:07.055Z,76.75
2022-09-23T02:51:54.038Z,76.59
2022-09-23T02:54:35.439Z,76.36
2022-09-23T02:57:22.000Z,75.95
2022-09-23T03:00:02.506Z,75.75
2022-09-23T03:03:10.038Z,76.08
2022-09-23T03:06:01.975Z,74.92
2022-09-23T03:26:01.584Z,75.01
2022-09-23T03:28:51.581Z,73.92
2022-09-23T03:31:38.642Z,73.41
2022-09-23T03:34:31.581Z,73.03
2022-09-23T03:37:22.734Z,72.48
2022-09-23T03:40:30.641Z,73.38
2022-09-23T03:43:12.775Z,72.03
2022-09-23T03:46:04.608Z,73.08
2022-09-23T03:48:52.554Z,72.07
2022-09-23T03:51:32.927Z,72.20
2022-09-23T03:54:19.550Z,72.48
2022-09-23T03:57:07.547Z,72.39
2022-09-23T03:59:47.631Z,71.85
2022-09-23T04:02:34.612Z,72.33
2022-09-23T04:05:16.626Z,73.03
2022-09-23T04:08:03.541Z,73.35
2022-09-23T04:10:55.048Z,73.24
2022-09-23T04:13:41.510Z,73.42
2022-09-23T04:16:28.569Z,73.88
2022-09-23T04:19:13.052Z,73.83
2022-09-23T04:21:59.486Z,73.33
2022-09-23T04:24:53.498Z,73.38
2022-09-23T04:27:40.514Z,72.23
2022-09-23T04:30:20.694Z,70.99
2022-09-23T04:33:07.486Z,68.94
2022-09-23T04:35:48.593Z,68.35
2022-09-23T04:38:35.449Z,68.19
2022-09-23T04:41:16.622Z,67.99
2022-09-23T04:44:04.497Z,68.14
2022-09-23T04:46:47.595Z,69.55
2022-09-23T04:49:34.440Z,70.67
2022-09-23T04:52:21.506Z,71.00
2022-09-23T04:55:11.175Z,71.55
2022-09-23T04:57:58.467Z,71.13
2022-09-23T05:00:38.953Z,72.11
2022-09-23T05:03:25.446Z,70.87
2022-09-23T05:06:06.236Z,65.95
2022-09-23T05:08:55.440Z,64.01
2022-09-23T05:11:42.410Z,59.74
2022-09-23T05:14:29.469Z,56.50
2022-09-23T05:17:16.436Z,53.02
2022-09-23T05:19:57.962Z,51.14
2022-09-23T05:22:44.456Z,49.29
2022-09-23T05:25:38.566Z,47.34
2022-09-23T05:28:20.153Z,48.73
2022-09-23T05:31:06.466Z,47.39
2022-09-23T05:33:59.451Z,45.53
2022-09-23T05:36:42.529Z,45.42
2022-09-23T05:39:29.416Z,47.25
2022-09-23T05:42:16.388Z,49.77
2022-09-23T05:44:56.803Z,48.34
2022-09-23T05:47:43.406Z,51.43
2022-09-23T05:50:30.368Z,49.96
2022-09-23T05:53:10.505Z,45.38
2022-09-23T05:55:58.384Z,49.95
2022-09-23T05:58:38.521Z,52.86
2022-09-23T06:01:28.488Z,52.78
2022-09-23T06:04:17.377Z,55.36
2022-09-23T06:07:04.359Z,56.35
2022-09-23T06:09:44.499Z,57.96
2022-09-23T06:12:32.376Z,60.12
2022-09-23T06:15:20.360Z,60.76
2022-09-23T06:18:01.185Z,60.47
2022-09-23T06:20:48.388Z,60.62
2022-09-23T06:23:29.541Z,60.25
2022-09-23T06:26:18.375Z,59.36
2022-09-23T06:28:58.721Z,58.97
2022-09-23T06:31:47.498Z,57.37
2022-09-23T06:34:27.856Z,58.16
2022-09-23T06:37:19.912Z,56.30
2022-09-23T06:40:07.369Z,54.69
2022-09-23T06:42:55.357Z,51.24
2022-09-23T06:45:35.751Z,41.58
2022-09-23T06:48:22.351Z,36.67
2022-09-23T06:51:05.402Z,34.21
2022-09-23T06:53:52.297Z,30.25
2022-09-23T06:56:38.527Z,27.75
2022-09-23T06:59:26.350Z,29.13
2022-09-23T07:02:13.478Z,28.50
2022-09-23T07:04:53.458Z,29.48
2022-09-23T07:07:42.316Z,30.33
2022-09-23T07:10:22.423Z,29.59
2022-09-23T07:13:16.036Z,27.40
2022-09-23T07:16:02.915Z,26.97
2022-09-23T07:18:49.328Z,27.10
2022-09-23T07:21:36.255Z,26.98
2022-09-23T07:24:30.264Z,26.24
2022-09-23T07:27:10.666Z,25.37
2022-09-23T07:29:58.292Z,25.54
2022-09-23T07:32:49.001Z,26.38
2022-09-23T07:35:29.342Z,22.86
2022-09-23T07:38:18.278Z,21.00
2022-09-23T07:41:05.265Z,23.05
2022-09-23T07:43:46.401Z,23.74
2022-09-23T07:46:33.325Z,23.15
2022-09-23T07:49:13.987Z,22.68
2022-09-23T07:52:00.273Z,22.57
2022-09-23T07:54:47.281Z,23.89
2022-09-23T07:57:34.238Z,22.96
2022-09-23T08:00:21.244Z,20.95
2022-09-23T08:03:01.436Z,22.51
2022-09-23T08:05:48.251Z,21.69
2022-09-23T08:08:29.021Z,20.48
2022-09-23T08:11:19.212Z,21.78
2022-09-23T08:14:00.317Z,21.66
2022-09-23T08:16:48.336Z,20.58
2022-09-23T08:19:28.313Z,20.20
2022-09-23T08:22:15.266Z,19.40
2022-09-23T08:25:02.217Z,19.12
2022-09-23T08:27:49.243Z,19.76
2022-09-23T08:30:32.321Z,20.04
2022-09-23T08:33:23.552Z,18.96
2022-09-23T08:36:17.298Z,18.70
2022-09-23T08:39:04.491Z,17.04
2022-09-23T08:41:59.118Z,17.40
2022-09-23T08:45:12.218Z,18.54
2022-09-23T08:48:12.162Z,17.10
2022-09-23T08:51:06.212Z,17.92
2022-09-23T08:53:54.269Z,17.67
2022-09-23T08:56:44.303Z,19.01
2022-09-23T08:59:43.226Z,15.94
2022-09-23T09:02:25.028Z,15.42
2022-09-23T09:05:17.246Z,15.52
2022-09-23T09:08:00.525Z,16.00
2022-09-23T09:10:54.182Z,14.52
2022-09-23T09:13:43.439Z,16.61
2022-09-23T09:16:59.659Z,17.38
2022-09-23T09:19:54.280Z,16.24
2022-09-23T09:23:02.201Z,15.38
2022-09-23T09:26:06.199Z,15.91
2022-09-23T09:29:11.482Z,15.36
2022-09-23T09:32:06.119Z,15.77
2022-09-23T09:34:54.722Z,22.97
2022-09-23T09:37:53.568Z,26.36
2022-09-23T09:40:35.287Z,27.64
2022-09-23T09:43:23.135Z,24.84
2022-09-23T09:46:43.213Z,28.80
2022-09-23T09:49:43.132Z,27.82
2022-09-23T09:52:33.156Z,28.69
2022-09-23T09:55:26.091Z,32.94
2022-09-23T09:58:13.098Z,35.93
2022-09-23T10:01:00.185Z,37.67
2022-09-23T10:03:50.826Z,38.99
2022-09-23T10:06:35.776Z,40.34
2022-09-23T10:09:26.066Z,42.28
2022-09-23T10:12:31.054Z,42.52
2022-09-23T10:15:33.076Z,43.30
2022-09-23T10:18:40.085Z,44.48
2022-09-23T10:21:27.741Z,35.24
2022-09-23T10:24:18.099Z,35.33
2022-09-23T10:27:12.093Z,35.90
2022-09-23T10:30:04.009Z,35.22
2022-09-23T10:32:52.033Z,37.46
2022-09-23T10:35:42.071Z,39.22
2022-09-23T10:38:22.485Z,41.05
2022-09-23T10:41:28.040Z,41.91
2022-09-23T10:44:37.795Z,41.04
2022-09-23T10:47:48.030Z,34.99
2022-09-23T10:50:55.113Z,30.62
2022-09-23T10:53:49.052Z,28.59
2022-09-23T10:56:36.184Z,28.75
2022-09-23T11:00:05.053Z,27.41
2022-09-23T11:03:09.026Z,27.79
2022-09-23T11:06:05.024Z,26.24
2022-09-23T11:09:03.107Z,28.57
2022-09-23T11:12:28.052Z,34.39
2022-09-23T11:15:39.031Z,38.67
2022-09-23T11:18:37.176Z,40.29
2022-09-23T11:21:30.016Z,44.22
2022-09-23T11:24:59.048Z,41.93
2022-09-23T11:27:45.535Z,36.76
2022-09-23T11:30:33.074Z,36.24
2022-09-23T11:33:30.978Z,35.79
2022-09-23T11:36:53.008Z,38.26
2022-09-23T11:39:42.646Z,39.39
2022-09-23T11:42:38.989Z,41.27
2022-09-23T11:45:25.566Z,43.25
2022-09-23T11:48:17.957Z,43.01
2022-09-23T11:51:20.581Z,43.26
2022-09-23T11:54:20.729Z,44.00
2022-09-23T11:57:12.980Z,45.10
2022-09-23T11:59:59.121Z,45.67
2022-09-23T12:03:02.970Z,46.23
2022-09-23T12:06:15.166Z,46.53
2022-09-23T12:09:07.976Z,46.07
2022-09-23T12:11:57.098Z,44.77
2022-09-23T12:15:21.165Z,46.98
2022-09-23T12:18:23.157Z,60.03
2022-09-23T12:21:22.148Z,69.32
2022-09-23T12:24:47.062Z,76.70
2022-09-23T12:27:36.922Z,79.79
2022-09-23T12:30:37.045Z,80.96
2022-09-23T12:33:30.954Z,80.56
2022-09-23T12:36:19.044Z,73.25
2022-09-23T12:39:13.971Z,78.56
2022-09-23T12:41:54.356Z,77.79
2022-09-23T12:44:46.949Z,78.03
2022-09-23T12:47:34.963Z,78.06
2022-09-23T12:50:47.270Z,76.46
2022-09-23T12:53:45.957Z,76.52
2022-09-23T12:56:57.993Z,78.95
2022-09-23T12:59:59.206Z,81.13
2022-09-23T13:03:26.952Z,78.14
2022-09-23T13:06:32.894Z,78.22
2022-09-23T13:09:25.899Z,75.55
2022-09-23T13:12:10.506Z,76.79
2022-09-23T13:15:00.944Z,76.05
2022-09-23T13:17:45.074Z,76.19
2022-09-23T13:20:44.910Z,76.06
2022-09-23T13:23:44.889Z,75.50
2022-09-23T13:26:31.906Z,73.34
2022-09-23T13:29:19.885Z,72.92
2022-09-23T13:32:08.931Z,72.56
2022-09-23T13:34:50.007Z,70.72
2022-09-23T13:37:56.878Z,70.80
2022-09-23T13:40:37.021Z,66.81
2022-09-23T13:43:38.946Z,69.10
2022-09-23T13:46:32.120Z,65.29
2022-09-23T13:49:30.862Z,66.08
2022-09-23T13:52:10.964Z,64.30
2022-09-23T13:54:57.859Z,62.95
2022-09-23T13:57:47.850Z,63.64
2022-09-23T14:00:41.867Z,67.75
2022-09-23T14:03:37.134Z,66.50
2022-09-23T14:06:23.851Z,67.89
2022-09-23T14:09:06.974Z,65.74
2022-09-23T14:11:53.801Z,62.67
2022-09-23T14:14:42.981Z,64.60
2022-09-23T14:17:29.825Z,61.31
2022-09-23T14:20:16.870Z,63.87
2022-09-23T14:23:10.733Z,62.91
2022-09-23T14:25:58.804Z,63.95
2022-09-23T14:28:45.808Z,61.15
2022-09-23T14:31:32.889Z,61.06
2022-09-23T14:34:47.883Z,60.27
2022-09-23T14:37:49.475Z,60.88
2022-09-23T14:40:45.850Z,59.94
2022-09-23T14:43:33.362Z,62.07
2022-09-23T14:46:26.813Z,59.57
2022-09-23T14:49:18.892Z,58.43
2022-09-23T14:52:13.807Z,61.69
2022-09-23T14:54:56.896Z,61.08
2022-09-23T14:57:44.762Z,57.86
2022-09-23T15:00:27.061Z,56.41
2022-09-23T15:03:22.866Z,56.57
2022-09-23T15:06:08.865Z,58.03
2022-09-23T15:08:57.803Z,56.64
2022-09-23T15:27:55.208Z,58.90
2022-09-23T15:30:36.906Z,58.58
2022-09-23T15:33:33.195Z,58.82
2022-09-23T15:36:23.131Z,61.33
2022-09-23T15:39:18.161Z,61.23
2022-09-23T15:42:06.185Z,61.54
2022-09-23T15:44:46.316Z,62.40
2022-09-23T15:47:33.138Z,62.03
2022-09-23T15:50:13.268Z,61.89
2022-09-23T15:53:00.140Z,62.92
2022-09-23T15:55:47.172Z,65.25
2022-09-23T15:58:34.279Z,66.33
2022-09-23T16:01:38.222Z,66.50
2022-09-23T16:04:18.601Z,66.98
2022-09-23T16:07:06.100Z,68.27
2022-09-23T16:09:46.671Z,69.11
2022-09-23T16:12:33.190Z,70.54
2022-09-23T16:15:17.046Z,72.07
2022-09-23T16:18:04.140Z,73.88
2022-09-23T16:20:46.425Z,74.27
2022-09-23T16:23:41.147Z,75.19
2022-09-23T16:26:32.042Z,75.27
2022-09-23T16:29:19.137Z,73.38
2022-09-23T16:32:01.094Z,71.96
2022-09-23T16:34:48.115Z,71.82
2022-09-23T16:37:28.531Z,72.62
2022-09-23T16:40:16.168Z,71.72
2022-09-23T16:42:58.427Z,73.00
2022-09-23T16:45:45.215Z,73.94
2022-09-23T16:48:25.734Z,74.69
2022-09-23T16:51:17.120Z,74.99
2022-09-23T16:53:59.447Z,75.67
2022-09-23T16:56:46.073Z,75.63
2022-09-23T16:59:53.113Z,76.25
2022-09-23T17:02:52.030Z,76.10
2022-09-23T17:05:39.044Z,75.73
2022-09-23T17:08:27.080Z,75.92
2022-09-23T17:11:08.915Z,75.38
2022-09-23T17:13:57.084Z,75.62
2022-09-23T17:16:44.160Z,77.93
2022-09-23T17:19:24.187Z,79.29
2022-09-23T17:22:11.074Z,79.94
2022-09-23T17:24:51.155Z,80.78
2022-09-23T17:27:39.090Z,81.48
2022-09-23T17:30:26.027Z,81.15
2022-09-23T17:33:06.495Z,81.70
2022-09-23T17:35:53.775Z,81.81
2022-09-23T17:38:40.213Z,82.20
2022-09-23T17:41:21.065Z,81.95
2022-09-23T17:44:01.736Z,82.59
2022-09-23T17:46:48.071Z,83.52
2022-09-23T17:49:29.964Z,83.18
2022-09-23T17:52:17.972Z,83.57
2022-09-23T17:55:06.014Z,83.53
2022-09-23T17:57:53.021Z,83.08
2022-09-23T18:00:40.164Z,83.38
2022-09-23T18:03:21.001Z,83.80
2022-09-23T18:06:08.384Z,83.29
2022-09-23T18:08:55.999Z,82.21
2022-09-23T18:11:39.158Z,82.94
2022-09-23T18:14:35.065Z,82.61
2022-09-23T18:17:22.973Z,82.30
2022-09-23T18:20:03.473Z,83.35
2022-09-23T18:22:50.114Z,83.19
2022-09-23T18:25:39.223Z,83.00
2022-09-23T18:28:25.977Z,83.31
2022-09-23T18:31:12.983Z,83.14
2022-09-23T18:34:02.005Z,83.43
2022-09-23T18:36:42.081Z,83.16
2022-09-23T18:39:28.994Z,82.25
2022-09-23T18:42:15.975Z,83.22
2022-09-23T18:44:57.205Z,82.65
2022-09-23T18:48:01.968Z,82.29
2022-09-23T18:50:43.999Z,82.38
2022-09-23T18:53:30.954Z,82.91
2022-09-23T18:56:13.421Z,82.26
2022-09-23T18:59:01.916Z,82.11
2022-09-23T19:01:50.128Z,82.64
2022-09-23T19:04:38.925Z,82.85
2022-09-23T19:07:25.917Z,82.39
2022-09-23T19:10:06.048Z,82.55
2022-09-23T19:12:52.936Z,82.87
2022-09-23T19:15:33.033Z,83.15
2022-09-23T19:18:19.889Z,83.66
2022-09-23T19:21:06.225Z,84.43
2022-09-23T19:24:02.914Z,83.90
2022-09-23T19:26:51.072Z,83.34
2022-09-23T19:29:31.911Z,84.09
2022-09-23T19:32:20.911Z,83.98
2022-09-23T19:35:01.133Z,84.27
2022-09-23T19:37:48.907Z,84.50
2022-09-23T19:40:31.860Z,83.61
2022-09-23T19:43:18.887Z,84.50
2022-09-23T19:46:02.969Z,84.75
2022-09-23T19:48:49.856Z,84.22
2022-09-23T19:51:36.874Z,84.13
2022-09-23T19:54:26.917Z,84.50
2022-09-23T19:57:06.978Z,85.55
2022-09-23T19:59:53.852Z,85.16
2022-09-23T20:02:34.069Z,85.35
2022-09-23T20:05:20.894Z,84.84
2022-09-23T20:08:02.066Z,85.26
2022-09-23T20:10:48.890Z,85.63
2022-09-23T20:13:35.862Z,85.02
2022-09-23T20:16:25.906Z,86.10
2022-09-23T20:19:07.046Z,86.06
2022-09-23T20:22:13.845Z,86.30
2022-09-23T20:24:53.932Z,86.87
2022-09-23T20:27:41.834Z,86.39
2022-09-23T20:30:21.965Z,86.30
2022-09-23T20:33:08.814Z,86.00
2022-09-23T20:35:48.893Z,85.65
2022-09-23T20:38:35.805Z,85.47
2022-09-23T20:41:22.760Z,84.16
2022-09-23T20:44:13.024Z,84.71
2022-09-23T20:47:00.848Z,82.46
2022-09-23T20:49:45.087Z,82.81
2022-09-23T20:52:31.829Z,82.42
2022-09-23T20:55:12.174Z,82.74
2022-09-23T20:58:01.806Z,82.25
2022-09-23T21:00:44.491Z,82.27
2022-09-23T21:03:32.806Z,82.44
2022-09-23T21:06:15.422Z,81.88
2022-09-23T21:09:01.779Z,81.44
2022-09-23T21:11:48.771Z,81.44
2022-09-23T21:14:28.897Z,81.98
2022-09-23T21:17:15.770Z,80.79
2022-09-23T21:20:02.766Z,81.67
2022-09-23T21:22:43.205Z,82.00
2022-09-23T21:25:30.715Z,81.08
2022-09-23T21:28:18.514Z,82.21
2022-09-23T21:31:00.106Z,81.08
2022-09-23T21:33:46.871Z,81.53
2022-09-23T21:36:27.710Z,80.93
2022-09-23T21:39:10.448Z,81.05
2022-09-23T21:41:57.738Z,80.99
2022-09-23T21:44:38.055Z,80.99
2022-09-23T21:47:24.724Z,81.31
2022-09-23T21:50:05.704Z,81.83
2022-09-23T21:52:52.669Z,82.20
2022-09-23T21:55:39.891Z,81.98
2022-09-23T21:58:20.719Z,82.41
2022-09-23T22:01:08.795Z,82.49
2022-09-23T22:03:49.892Z,83.46
2022-09-23T22:06:36.717Z,82.94
2022-09-23T22:09:25.767Z,83.93
2022-09-23T22:12:14.669Z,84.52
2022-09-23T22:14:54.801Z,84.34
2022-09-23T22:17:41.670Z,84.65
2022-09-23T22:20:28.671Z,84.72
2022-09-23T22:23:15.722Z,84.20
2022-09-23T22:25:59.430Z,84.05
2022-09-23T22:29:06.668Z,84.44
2022-09-23T22:32:11.689Z,86.12
2022-09-23T22:34:52.823Z,85.87
2022-09-23T22:37:45.673Z,86.27
2022-09-23T22:40:32.694Z,85.31
2022-09-23T22:43:19.645Z,84.30
2022-09-23T22:46:07.701Z,84.37
2022-09-23T22:48:54.633Z,85.45
2022-09-23T22:51:41.658Z,85.88
2022-09-23T22:54:22.248Z,85.03
2022-09-23T22:57:11.635Z,85.18
2022-09-23T22:59:59.634Z,85.90
2022-09-23T23:02:40.343Z,86.32
2022-09-23T23:05:26.615Z,86.31
2022-09-23T23:08:13.612Z,86.84
2022-09-23T23:10:55.026Z,87.22
2022-09-23T23:13:41.620Z,87.59
2022-09-23T23:16:25.309Z,88.56
2022-09-23T23:19:16.602Z,88.47
2022-09-23T23:22:04.602Z,88.85
2022-09-23T23:24:51.634Z,89.16
2022-09-23T23:27:38.616Z,89.16
2022-09-23T23:30:18.945Z,89.59
2022-09-23T23:33:05.590Z,89.57
2022-09-23T23:35:57.602Z,89.89
2022-09-23T23:38:38.040Z,90.24
2022-09-23T23:41:28.580Z,91.03
2022-09-23T23:44:08.778Z,91.11
2022-09-23T23:46:55.624Z,91.81
2022-09-23T23:49:35.651Z,91.09
2022-09-23T23:52:22.543Z,91.16
2022-09-23T23:55:02.968Z,90.64
2022-09-23T23:57:49.577Z,91.61
